NCAR-RAP Real-Time Weather Data

Output produced by METARs form (24 May 2018  17:51 UTC)
found at http://weather.rap.ucar.edu/surface/
 
Conditions at: K4O4 observed 24 May 2018  17:35 UTC
Temperature: 29.0°C (84°F)
Dewpoint: 18.0°C (64°F) [RH = 52%]
Pressure (altimeter): 30.10 inches Hg (1019.4 mb)
Winds: calm
Visibility: 10 or more miles (16+ km)
Ceiling: at least 12,000 feet AGL
Clouds: sky clear below 12,000 feet AGL
Present Weather: automated observation with no human augmentation;
there may or may not be significant weather present at this time
K4O4 241735Z AUTO 00000KT 10SM CLR 29/18 A3010 RMK AO2